Skip Navigation Links
NOAA logo - Click to go to the NOAA homepage
NOAA's National Weather Service
Alaska Aviation Weather Unit
  NWS logo - Click to go to the NWS homepage
Left Navbar Graphic     01 AKDT = 09 GMT

   
NOAA is celebrating 200 years of science, service, and stewardship. Visit the NOAA 200th celebration Web site to learn more.
USA.gov is the U.S. Government's official Web portal to all Federal, state and local government Web resources and services.
Facebook
NWS on Facebook

Important Change Regarding the AAWU Web Presence

 

Over the last several months, the AAWU has been working to navigate its webpages to a nationally supported server. Security, as well as other needs, have necessitated the change.  We have been given an extension for the site changeover while we diligently work at addressing feedback received. As of July 14, 2017, aawu.arh.noaa.gov will be discontinued. The new AAWU web address is weather.gov/aawu. It is now live and will run in-parallel with the old site until it is discontinued on July 14, 2017. Please continue to send any feedback or questions regarding the new webpages to nws.ar.aawu.webauthors@noaa.gov.  Thank you for your patience during this time of transition.
AAWU Home :: Display TAF Add Bookmark
TAF PACD 190809Z 1908/2006  26009KT 4SM BR SCT008 OVC015
      TEMPO 1908/1912 2SM -SHRA BR BKN005
     FM192200 02011KT P6SM OVC015=

7600
FTAK31 PANC 190809 AAA
TAFAHO
TAF AMD
PACD 190309Z AUTO 34005KT 9SM BKN013 OVC019 11/09 A2982=

PACD 190336Z AUTO 34005KT 10SM OVC015 11/09 A2982=

METAR PACD 190353Z AUTO 35004KT 10SM OVC016 11/10 A2981=

PACD 190444Z AUTO 03005KT 6SM BR SCT007 OVC016 11/10 A2980=

METAR PACD 190453Z AUTO 04004KT 7SM BKN009 OVC016 11/10 A2980=

PACD 190500Z AUTO 00000KT 8SM SCT007 OVC016 11/10 A2979 RMK AO2
     T01110100 TSNO=

METAR PACD 190553Z AUTO 07003KT 9SM BKN016 OVC023 11/10 A2979=

PACD 190610Z AUTO 00000KT 5SM BR FEW006 BKN016 OVC023 11/10 A2979=

PACD 190632Z AUTO 00000KT 10SM BKN008 BKN013 OVC023 11/10 A2979=

METAR PACD 190653Z AUTO 00000KT 6SM BR BKN007 BKN015 OVC021 11/10
     A2980=

METAR PACD 190753Z AUTO 12003KT 4SM BR BKN005 OVC010 10/10 A2979=

PACD 190804Z AUTO 11003KT 2SM -RA BR BKN005 OVC010 10/10 A2979=

PACD 190826Z AUTO 13003KT 2SM -RA BR BKN004 OVC013 10/10 A2979=

METAR PACD 190853Z AUTO 12005KT 4SM BR BKN003 BKN013 OVC024 10/10
     A2978=


NOAA's National Weather Service
Alaska Aviation Weather Unit
6930 Sand Lake Road
Anchorage, AK 99502-1845
Disclaimer
Credits
Glossary
Privacy Policy
About Us
Career Opportunities
Contact AAWU Internet Services Site last modified: April, 17th 2012